Time;durP1;ratioP1;P1;durP2;ratioP2;P2;SDS_P1;SDS_P2;PMS_P1;PMS_P2;Temp;Humidity;BMP_temperature;BMP_pressure;BME280_temperature;BME280_humidity;BME280_pressure;Samples;Min_cycle;Max_cycle;Signal;HPM_P1;HPM_P2
2023/09/18 00:01:51;;;;;;;;;;;22.70;1.00;;;;;;4956074;29;19933;-59
2023/09/18 00:04:18;;;;;;;;;;;22.70;1.00;;;;;;4956117;29;20362;-58
2023/09/18 00:06:45;;;;;;;;;;;22.70;1.00;;;;;;4956066;28;20335;-59
2023/09/18 00:09:13;;;;;;;;;;;22.70;1.00;;;;;;4955724;29;20480;-59
2023/09/18 00:11:40;;;;;;;;;;;22.70;1.00;;;;;;4956036;29;19930;-59
2023/09/18 00:14:07;;;;;;;;;;;22.70;1.00;;;;;;4956018;29;20017;-59
2023/09/18 00:16:35;;;;;;;;;;;22.70;1.00;;;;;;4955808;28;19969;-59
2023/09/18 00:19:21;;;;;;;;;;;22.70;1.00;;;;;;4949571;29;19953;-59
2023/09/18 00:21:49;;;;;;;;;;;22.70;1.00;;;;;;4955607;29;20024;-59
2023/09/18 00:24:17;;;;;;;;;;;22.70;1.00;;;;;;4955716;29;20025;-59
2023/09/18 00:26:45;;;;;;;;;;;22.70;1.00;;;;;;4955442;29;20020;-58
2023/09/18 00:29:12;;;;;;;;;;;22.70;1.00;;;;;;4955782;29;20013;-59
2023/09/18 00:31:39;;;;;;;;;;;22.70;1.00;;;;;;4937989;29;19927;-57
2023/09/18 00:34:06;;;;;;;;;;;22.70;1.00;;;;;;4938115;29;19927;-58
2023/09/18 00:36:32;;;;;;;;;;;22.70;1.00;;;;;;5183270;23;19932;-59
2023/09/18 00:38:59;;;;;;;;;;;22.60;1.00;;;;;;4956210;28;19930;-59
2023/09/18 00:41:26;;;;;;;;;;;22.60;1.00;;;;;;4973202;28;19981;-57
2023/09/18 00:43:53;;;;;;;;;;;22.60;1.00;;;;;;4973469;28;19927;-58
2023/09/18 00:46:21;;;;;;;;;;;22.60;1.00;;;;;;4952984;29;19985;-58
2023/09/18 00:48:48;;;;;;;;;;;22.60;1.00;;;;;;4953958;29;19986;-57
2023/09/18 00:51:16;;;;;;;;;;;22.60;1.00;;;;;;4954072;29;19926;-58
2023/09/18 00:53:43;;;;;;;;;;;22.60;1.00;;;;;;4954087;29;19974;-58
2023/09/18 00:56:10;;;;;;;;;;;22.60;1.00;;;;;;4953641;29;20014;-59
2023/09/18 00:58:38;;;;;;;;;;;22.60;1.00;;;;;;4953641;29;20397;-59
2023/09/18 01:01:05;;;;;;;;;;;22.60;1.00;;;;;;4953882;29;20338;-59
2023/09/18 01:03:32;;;;;;;;;;;22.60;1.00;;;;;;4955019;28;19927;-59
2023/09/18 01:06:00;;;;;;;;;;;22.60;1.00;;;;;;4954732;28;19962;-59
2023/09/18 01:08:27;;;;;;;;;;;22.60;1.00;;;;;;4954672;29;19982;-66
2023/09/18 01:11:05;;;;;;;;;;;22.60;1.00;;;;;;4953786;29;20394;-57
2023/09/18 01:13:41;;;;;;;;;;;22.60;1.00;;;;;;4954985;28;19926;-59
2023/09/18 01:16:17;;;;;;;;;;;22.60;1.00;;;;;;4953329;29;20889;-59
2023/09/18 01:18:50;;;;;;;;;;;22.60;1.00;;;;;;4948458;29;19927;-58
2023/09/18 01:21:21;;;;;;;;;;;22.60;1.00;;;;;;4953646;29;19934;-59
2023/09/18 01:23:49;;;;;;;;;;;22.60;1.00;;;;;;4953718;29;19986;-59
2023/09/18 01:26:15;;;;;;;;;;;22.60;1.00;;;;;;4953221;29;20457;-59
2023/09/18 01:28:42;;;;;;;;;;;22.60;1.00;;;;;;4953351;29;20341;-59
2023/09/18 01:31:09;;;;;;;;;;;22.60;1.00;;;;;;4953327;29;19926;-59
2023/09/18 01:33:37;;;;;;;;;;;22.60;1.00;;;;;;4954661;28;20013;-59
2023/09/18 01:36:07;;;;;;;;;;;22.60;1.00;;;;;;4954264;28;20374;-59
2023/09/18 01:38:35;;;;;;;;;;;22.60;1.00;;;;;;4953385;29;20356;-59
2023/09/18 01:41:02;;;;;;;;;;;22.60;1.00;;;;;;4953105;29;20346;-66
2023/09/18 01:43:30;;;;;;;;;;;22.60;1.00;;;;;;4952414;28;19934;-59
2023/09/18 01:45:57;;;;;;;;;;;22.60;1.00;;;;;;4951539;29;20049;-59
2023/09/18 01:48:23;;;;;;;;;;;22.60;1.00;;;;;;4946099;29;19981;-58
2023/09/18 01:50:50;;;;;;;;;;;22.60;1.00;;;;;;4954354;29;20359;-58
2023/09/18 01:53:17;;;;;;;;;;;22.60;1.00;;;;;;4937216;29;20395;-59
2023/09/18 01:55:44;;;;;;;;;;;22.60;1.00;;;;;;4954211;29;19926;-60
2023/09/18 01:58:14;;;;;;;;;;;22.60;1.00;;;;;;4944902;29;19927;-59
2023/09/18 02:00:42;;;;;;;;;;;22.60;1.00;;;;;;4955765;29;20301;-59
2023/09/18 02:03:10;;;;;;;;;;;22.60;1.00;;;;;;4957017;29;19927;-55
2023/09/18 02:05:57;;;;;;;;;;;22.60;1.00;;;;;;4954077;29;20545;-58
2023/09/18 02:08:24;;;;;;;;;;;22.60;1.00;;;;;;4952436;29;19937;-58
2023/09/18 02:10:52;;;;;;;;;;;22.50;1.00;;;;;;4952883;29;19976;-57
2023/09/18 02:13:18;;;;;;;;;;;22.60;1.00;;;;;;4952792;29;19926;-58
2023/09/18 02:15:45;;;;;;;;;;;22.60;1.00;;;;;;4937097;29;20025;-58
2023/09/18 02:18:12;;;;;;;;;;;22.60;1.00;;;;;;4952222;29;19993;-58
2023/09/18 02:20:44;;;;;;;;;;;22.60;1.00;;;;;;4946463;29;19926;-54
2023/09/18 02:23:10;;;;;;;;;;;22.60;1.00;;;;;;4952708;29;19949;-57
2023/09/18 02:25:37;;;;;;;;;;;22.60;1.00;;;;;;4952720;29;20413;-58
2023/09/18 02:28:04;;;;;;;;;;;22.60;1.00;;;;;;4953647;29;19958;-58
2023/09/18 02:30:31;;;;;;;;;;;22.60;1.00;;;;;;4953761;28;19930;-57
2023/09/18 02:32:59;;;;;;;;;;;22.60;1.00;;;;;;4954165;29;20338;-56
2023/09/18 02:35:26;;;;;;;;;;;22.60;1.00;;;;;;4953613;28;20410;-58
2023/09/18 02:37:53;;;;;;;;;;;22.60;1.00;;;;;;4952352;29;20473;-59
2023/09/18 02:40:20;;;;;;;;;;;22.50;1.00;;;;;;4952540;29;20122;-56
2023/09/18 02:42:46;;;;;;;;;;;22.50;1.00;;;;;;4953721;29;19957;-66
2023/09/18 02:45:13;;;;;;;;;;;22.60;1.00;;;;;;4952413;29;19926;-58
2023/09/18 02:47:41;;;;;;;;;;;22.50;1.00;;;;;;4952353;29;20163;-58
2023/09/18 02:50:10;;;;;;;;;;;22.50;1.00;;;;;;4952634;29;19977;-58
2023/09/18 02:52:38;;;;;;;;;;;22.50;1.00;;;;;;4952633;29;19926;-58
2023/09/18 02:55:05;;;;;;;;;;;22.50;1.00;;;;;;4953267;28;19958;-58
2023/09/18 02:57:32;;;;;;;;;;;22.50;1.00;;;;;;4956162;28;19930;-56
2023/09/18 02:59:58;;;;;;;;;;;22.50;1.00;;;;;;4956195;29;19966;-58
2023/09/18 03:02:25;;;;;;;;;;;22.50;1.00;;;;;;4956019;29;19933;-58
2023/09/18 03:04:53;;;;;;;;;;;22.50;1.00;;;;;;4955833;29;19958;-59
2023/09/18 03:07:19;;;;;;;;;;;22.50;1.00;;;;;;4955414;29;19961;-58
2023/09/18 03:09:46;;;;;;;;;;;22.50;1.00;;;;;;4955979;29;20351;-58
2023/09/18 03:12:13;;;;;;;;;;;22.50;1.00;;;;;;4955774;29;20303;-59
2023/09/18 03:14:40;;;;;;;;;;;22.50;1.00;;;;;;4957063;29;20470;-56
2023/09/18 03:17:07;;;;;;;;;;;22.50;1.00;;;;;;5147339;23;19926;-59
2023/09/18 03:19:33;;;;;;;;;;;22.50;1.00;;;;;;4949249;29;19953;-58
2023/09/18 03:22:01;;;;;;;;;;;22.50;1.00;;;;;;4940140;29;19926;-59
2023/09/18 03:24:28;;;;;;;;;;;22.50;1.00;;;;;;4939797;29;19926;-58
2023/09/18 03:26:55;;;;;;;;;;;22.50;1.00;;;;;;4936350;29;19973;-59
2023/09/18 03:29:22;;;;;;;;;;;22.50;1.00;;;;;;4919673;29;19926;-59
2023/09/18 03:31:49;;;;;;;;;;;22.50;1.00;;;;;;4936291;29;19927;-60
2023/09/18 03:34:16;;;;;;;;;;;22.50;1.00;;;;;;4936155;29;19934;-60
2023/09/18 03:36:43;;;;;;;;;;;22.50;1.00;;;;;;4937359;29;19955;-57
2023/09/18 03:39:10;;;;;;;;;;;22.50;1.00;;;;;;4935909;29;20461;-58
2023/09/18 03:41:37;;;;;;;;;;;22.50;1.00;;;;;;4936203;29;19927;-59
2023/09/18 03:44:04;;;;;;;;;;;22.50;1.00;;;;;;4936065;29;19957;-58
2023/09/18 03:46:31;;;;;;;;;;;22.50;1.00;;;;;;4937195;29;19935;-59
2023/09/18 03:48:58;;;;;;;;;;;22.50;1.00;;;;;;4935722;29;19933;-56
2023/09/18 03:51:25;;;;;;;;;;;22.50;1.00;;;;;;4933977;29;19939;-58
2023/09/18 03:53:51;;;;;;;;;;;22.50;1.00;;;;;;4935911;29;20391;-59
2023/09/18 03:56:18;;;;;;;;;;;22.50;1.00;;;;;;4936738;29;20025;-59
2023/09/18 03:58:49;;;;;;;;;;;22.50;1.00;;;;;;4937068;29;19982;-58
2023/09/18 04:01:16;;;;;;;;;;;22.40;1.00;;;;;;4935781;29;19930;-58
2023/09/18 04:03:43;;;;;;;;;;;22.40;1.00;;;;;;4935794;29;19978;-57
2023/09/18 04:06:10;;;;;;;;;;;22.40;1.00;;;;;;4935277;29;19926;-59
2023/09/18 04:08:37;;;;;;;;;;;22.40;1.00;;;;;;4924012;29;19990;-59
2023/09/18 04:11:04;;;;;;;;;;;22.50;1.00;;;;;;4934267;29;19986;-59
2023/09/18 04:13:33;;;;;;;;;;;22.40;1.00;;;;;;4935321;29;19927;-59
2023/09/18 04:16:00;;;;;;;;;;;22.50;1.00;;;;;;4936468;29;19927;-59
2023/09/18 04:18:27;;;;;;;;;;;22.50;1.00;;;;;;4936798;29;19927;-59
2023/09/18 04:20:54;;;;;;;;;;;22.40;1.00;;;;;;4935603;29;19927;-67
2023/09/18 04:23:21;;;;;;;;;;;22.40;1.00;;;;;;4935506;29;19926;-58
2023/09/18 04:25:50;;;;;;;;;;;22.50;1.00;;;;;;4935404;29;20015;-57
2023/09/18 04:28:18;;;;;;;;;;;22.50;1.00;;;;;;4932633;29;19934;-58
2023/09/18 04:30:46;;;;;;;;;;;22.40;1.00;;;;;;4935495;29;19958;-59
2023/09/18 04:33:13;;;;;;;;;;;22.40;1.00;;;;;;4936028;29;19933;-59
2023/09/18 04:35:40;;;;;;;;;;;22.40;1.00;;;;;;4935424;29;19927;-58
2023/09/18 04:38:10;;;;;;;;;;;22.50;1.00;;;;;;4936424;29;20303;-59
2023/09/18 04:40:38;;;;;;;;;;;22.40;1.00;;;;;;4935381;29;19927;-59
2023/09/18 04:43:07;;;;;;;;;;;22.40;1.00;;;;;;4935267;29;20297;-59
2023/09/18 04:45:34;;;;;;;;;;;22.40;1.00;;;;;;4935198;29;19973;-59
2023/09/18 04:48:01;;;;;;;;;;;22.40;1.00;;;;;;4934978;29;19931;-56
2023/09/18 04:50:29;;;;;;;;;;;22.40;1.00;;;;;;4923741;29;20290;-59
2023/09/18 04:52:57;;;;;;;;;;;22.40;1.00;;;;;;4935155;29;19937;-59
2023/09/18 04:55:25;;;;;;;;;;;22.40;1.00;;;;;;4934635;29;20276;-57
2023/09/18 04:57:52;;;;;;;;;;;22.40;1.00;;;;;;4934473;29;20291;-59
2023/09/18 05:00:23;;;;;;;;;;;22.40;1.00;;;;;;4934660;29;19958;-59
2023/09/18 05:02:50;;;;;;;;;;;22.40;1.00;;;;;;4935089;29;20009;-57
2023/09/18 05:05:17;;;;;;;;;;;22.40;1.00;;;;;;4934602;29;20049;-59
2023/09/18 05:07:45;;;;;;;;;;;22.40;1.00;;;;;;4934212;29;19931;-58
2023/09/18 05:10:12;;;;;;;;;;;22.40;1.00;;;;;;4935788;29;20305;-57
2023/09/18 05:12:39;;;;;;;;;;;22.40;1.00;;;;;;4935878;29;19935;-58
2023/09/18 05:15:06;;;;;;;;;;;22.40;1.00;;;;;;4935825;29;19943;-57
2023/09/18 05:17:43;;;;;;;;;;;22.40;1.00;;;;;;4935007;29;19926;-58
2023/09/18 05:20:15;;;;;;;;;;;22.40;1.00;;;;;;4935687;29;20014;-57
2023/09/18 05:22:43;;;;;;;;;;;22.40;1.00;;;;;;4935363;29;20387;-59
2023/09/18 05:25:10;;;;;;;;;;;22.40;1.00;;;;;;4934422;29;20054;-58
2023/09/18 05:27:43;;;;;;;;;;;22.40;1.00;;;;;;4935233;29;20349;-59
2023/09/18 05:30:12;;;;;;;;;;;22.40;1.00;;;;;;4935639;29;19958;-59
2023/09/18 05:32:39;;;;;;;;;;;22.40;1.00;;;;;;4935409;29;20298;-57
2023/09/18 05:35:06;;;;;;;;;;;22.40;1.00;;;;;;4935448;29;19934;-59
2023/09/18 05:37:33;;;;;;;;;;;22.40;1.00;;;;;;4934925;29;19927;-59
2023/09/18 05:40:00;;;;;;;;;;;22.40;1.00;;;;;;4935389;29;19927;-58
2023/09/18 05:42:27;;;;;;;;;;;22.40;1.00;;;;;;4935275;29;19986;-57
2023/09/18 05:44:54;;;;;;;;;;;22.40;1.00;;;;;;4935217;29;19990;-59
2023/09/18 05:47:21;;;;;;;;;;;22.40;1.00;;;;;;4935234;29;19926;-59
2023/09/18 05:49:48;;;;;;;;;;;22.40;1.00;;;;;;4927502;29;20324;-58
2023/09/18 05:52:14;;;;;;;;;;;22.40;1.00;;;;;;4934964;29;19930;-59
2023/09/18 05:54:41;;;;;;;;;;;22.40;1.00;;;;;;4935022;29;20339;-55
2023/09/18 05:57:08;;;;;;;;;;;22.40;1.00;;;;;;4934139;29;19951;-58
2023/09/18 05:59:34;;;;;;;;;;;22.40;1.00;;;;;;4933837;29;20489;-57
2023/09/18 06:02:02;;;;;;;;;;;22.40;1.00;;;;;;4934959;29;19927;-59
2023/09/18 06:04:30;;;;;;;;;;;22.40;1.00;;;;;;4935084;29;20391;-59
2023/09/18 06:06:57;;;;;;;;;;;22.40;1.00;;;;;;4934790;29;20030;-59
2023/09/18 06:09:24;;;;;;;;;;;22.40;1.00;;;;;;4935383;29;19969;-59
2023/09/18 06:11:51;;;;;;;;;;;22.40;1.00;;;;;;4935097;29;19927;-55
2023/09/18 06:14:18;;;;;;;;;;;22.40;1.00;;;;;;4934998;29;20531;-58
2023/09/18 06:16:44;;;;;;;;;;;22.40;1.00;;;;;;4933927;29;20402;-57
2023/09/18 06:19:11;;;;;;;;;;;22.40;1.00;;;;;;4934757;29;19926;-58
2023/09/18 06:21:38;;;;;;;;;;;22.40;1.00;;;;;;4933879;29;20402;-58
2023/09/18 06:24:05;;;;;;;;;;;22.40;1.00;;;;;;4934774;29;20030;-58
2023/09/18 06:26:32;;;;;;;;;;;22.40;1.00;;;;;;4934447;29;19926;-57
2023/09/18 06:28:58;;;;;;;;;;;22.40;1.00;;;;;;4932429;29;20033;-59
2023/09/18 06:31:26;;;;;;;;;;;22.40;1.00;;;;;;4934649;29;19927;-58
2023/09/18 06:33:53;;;;;;;;;;;22.40;1.00;;;;;;4938982;29;19927;-57
2023/09/18 06:36:19;;;;;;;;;;;22.40;1.00;;;;;;4938549;29;19982;-58
2023/09/18 06:38:46;;;;;;;;;;;22.40;1.00;;;;;;4938212;29;19978;-59
2023/09/18 06:41:13;;;;;;;;;;;22.40;1.00;;;;;;4938679;29;19934;-58
2023/09/18 06:43:40;;;;;;;;;;;22.40;1.00;;;;;;4938563;29;19927;-56
2023/09/18 06:46:07;;;;;;;;;;;22.40;1.00;;;;;;4938319;29;19965;-59
2023/09/18 06:48:35;;;;;;;;;;;22.40;1.00;;;;;;4938060;29;19926;-59
2023/09/18 06:51:01;;;;;;;;;;;22.40;1.00;;;;;;4938348;29;19927;-59
2023/09/18 06:53:28;;;;;;;;;;;22.40;1.00;;;;;;4938218;29;19930;-59
2023/09/18 06:55:55;;;;;;;;;;;22.40;1.00;;;;;;4938089;29;19966;-58
2023/09/18 06:58:22;;;;;;;;;;;22.40;1.00;;;;;;4938095;29;19926;-59
2023/09/18 07:00:50;;;;;;;;;;;22.40;1.00;;;;;;4937966;29;20365;-58
2023/09/18 07:03:17;;;;;;;;;;;22.40;1.00;;;;;;4938145;29;20375;-58
2023/09/18 07:05:46;;;;;;;;;;;22.40;1.00;;;;;;4938017;29;19982;-57
2023/09/18 07:08:15;;;;;;;;;;;22.40;1.00;;;;;;4937673;29;20294;-58
2023/09/18 07:10:42;;;;;;;;;;;22.40;1.00;;;;;;4937940;29;19986;-59
2023/09/18 07:13:09;;;;;;;;;;;22.40;1.00;;;;;;4937984;29;19927;-58
2023/09/18 07:15:36;;;;;;;;;;;22.40;1.00;;;;;;4937858;29;19934;-59
2023/09/18 07:18:03;;;;;;;;;;;22.40;1.00;;;;;;4937394;29;20454;-58
2023/09/18 07:20:30;;;;;;;;;;;22.40;1.00;;;;;;4937692;29;19961;-59
2023/09/18 07:22:57;;;;;;;;;;;22.40;1.00;;;;;;4937669;29;19934;-59
2023/09/18 07:25:24;;;;;;;;;;;22.40;1.00;;;;;;4937743;29;19966;-58
2023/09/18 07:27:50;;;;;;;;;;;22.40;1.00;;;;;;4937322;29;19967;-59
2023/09/18 07:30:19;;;;;;;;;;;22.40;1.00;;;;;;4937658;29;19982;-59
2023/09/18 07:32:46;;;;;;;;;;;22.40;1.00;;;;;;4929192;29;19931;-57
2023/09/18 07:35:14;;;;;;;;;;;22.40;1.00;;;;;;4937685;29;19982;-57
2023/09/18 07:37:44;;;;;;;;;;;22.40;1.00;;;;;;4937076;29;20401;-57
2023/09/18 07:40:11;;;;;;;;;;;22.40;1.00;;;;;;4937529;29;19926;-58
2023/09/18 07:42:37;;;;;;;;;;;22.40;1.00;;;;;;4936180;29;19986;-58
2023/09/18 07:45:04;;;;;;;;;;;22.40;1.00;;;;;;4937430;29;19927;-57
2023/09/18 07:47:31;;;;;;;;;;;22.40;1.00;;;;;;4936806;29;19982;-59
2023/09/18 07:49:59;;;;;;;;;;;22.40;1.00;;;;;;4937519;29;19934;-58
2023/09/18 07:52:26;;;;;;;;;;;22.40;1.00;;;;;;4937245;29;19927;-59
2023/09/18 07:54:53;;;;;;;;;;;22.40;1.00;;;;;;4936961;29;19958;-58
2023/09/18 07:57:22;;;;;;;;;;;22.40;1.00;;;;;;4936712;29;19927;-59
2023/09/18 07:59:49;;;;;;;;;;;22.40;1.00;;;;;;4936801;29;20442;-57
2023/09/18 08:02:17;;;;;;;;;;;22.40;1.00;;;;;;4937154;29;19931;-59
2023/09/18 08:04:44;;;;;;;;;;;22.40;1.00;;;;;;4937087;29;19966;-59
2023/09/18 08:07:12;;;;;;;;;;;22.40;1.00;;;;;;4936547;29;19970;-59
2023/09/18 08:09:39;;;;;;;;;;;22.40;1.00;;;;;;4937084;29;20370;-58
2023/09/18 08:12:06;;;;;;;;;;;22.40;1.00;;;;;;4936911;29;20036;-56
2023/09/18 08:14:36;;;;;;;;;;;22.40;1.00;;;;;;4936934;29;19950;-59
2023/09/18 08:17:04;;;;;;;;;;;22.40;1.00;;;;;;4936226;29;19973;-59
2023/09/18 08:19:33;;;;;;;;;;;22.40;1.00;;;;;;4936842;29;19949;-58
2023/09/18 08:22:00;;;;;;;;;;;22.40;1.00;;;;;;4928811;29;19927;-57
2023/09/18 08:24:30;;;;;;;;;;;22.40;1.00;;;;;;4936532;29;19973;-59
2023/09/18 08:26:57;;;;;;;;;;;22.40;1.00;;;;;;4936203;29;19952;-59
2023/09/18 08:29:24;;;;;;;;;;;22.40;1.00;;;;;;4936850;29;20367;-59
2023/09/18 08:31:50;;;;;;;;;;;22.40;1.00;;;;;;4936418;29;19926;-59
2023/09/18 08:34:17;;;;;;;;;;;22.40;1.00;;;;;;4936476;29;19949;-59
2023/09/18 08:36:46;;;;;;;;;;;22.50;1.00;;;;;;4936129;29;19965;-59
2023/09/18 08:39:13;;;;;;;;;;;22.50;1.00;;;;;;4936399;29;19927;-58
2023/09/18 08:41:42;;;;;;;;;;;22.50;1.00;;;;;;4936274;29;19962;-58
2023/09/18 08:44:09;;;;;;;;;;;22.50;1.00;;;;;;4936477;29;19935;-59
2023/09/18 08:46:36;;;;;;;;;;;22.50;1.00;;;;;;4936062;29;19927;-59
2023/09/18 08:49:04;;;;;;;;;;;22.50;1.00;;;;;;4928476;29;20026;-58
2023/09/18 08:51:32;;;;;;;;;;;22.50;1.00;;;;;;4936122;29;20009;-58
2023/09/18 08:53:59;;;;;;;;;;;22.50;1.00;;;;;;4935860;29;19931;-59
2023/09/18 08:56:27;;;;;;;;;;;22.50;1.00;;;;;;4935971;29;19969;-59
2023/09/18 08:58:56;;;;;;;;;;;22.50;1.00;;;;;;4935732;29;19927;-57
2023/09/18 09:01:23;;;;;;;;;;;22.50;1.00;;;;;;4935968;29;19926;-59
2023/09/18 09:03:50;;;;;;;;;;;22.50;1.00;;;;;;4935979;29;20417;-57
2023/09/18 09:06:17;;;;;;;;;;;22.50;1.00;;;;;;4936111;29;19926;-59
2023/09/18 09:08:43;;;;;;;;;;;22.50;1.00;;;;;;4935439;29;19927;-59
2023/09/18 09:11:10;;;;;;;;;;;22.50;1.00;;;;;;4935813;29;19962;-59
2023/09/18 09:13:37;;;;;;;;;;;22.50;1.00;;;;;;4935850;29;19933;-59
2023/09/18 09:16:12;;;;;;;;;;;22.60;1.00;;;;;;4935604;29;19936;-59
2023/09/18 09:18:49;;;;;;;;;;;22.60;1.00;;;;;;4935393;29;20391;-58
2023/09/18 09:21:17;;;;;;;;;;;22.60;1.00;;;;;;4935564;29;19927;-59
2023/09/18 09:23:45;;;;;;;;;;;22.60;1.00;;;;;;4935844;29;20338;-59
2023/09/18 09:26:13;;;;;;;;;;;22.60;1.00;;;;;;4935560;29;19933;-58
2023/09/18 09:28:42;;;;;;;;;;;22.60;1.00;;;;;;4935429;29;20322;-59
2023/09/18 09:31:13;;;;;;;;;;;22.60;1.00;;;;;;4935239;29;19978;-57
2023/09/18 09:33:49;;;;;;;;;;;22.60;1.00;;;;;;4935547;29;19949;-59
2023/09/18 09:36:16;;;;;;;;;;;22.60;1.00;;;;;;4935248;29;20442;-59
2023/09/18 09:38:44;;;;;;;;;;;22.60;1.00;;;;;;4935144;29;20347;-58
2023/09/18 09:41:14;;;;;;;;;;;22.60;1.00;;;;;;4935364;29;19933;-58
2023/09/18 09:43:42;;;;;;;;;;;22.70;1.00;;;;;;4935209;29;20012;-59
2023/09/18 09:46:14;;;;;;;;;;;22.70;1.00;;;;;;4935401;29;19930;-59
2023/09/18 09:48:41;;;;;;;;;;;22.70;1.00;;;;;;4935180;29;19928;-59
2023/09/18 09:51:08;;;;;;;;;;;22.70;1.00;;;;;;4935245;29;20427;-59
2023/09/18 09:53:47;;;;;;;;;;;22.70;1.00;;;;;;4935290;29;19958;-59
2023/09/18 09:56:14;;;;;;;;;;;22.70;1.00;;;;;;4934896;29;19938;-59
2023/09/18 09:58:43;;;;;;;;;;;22.70;1.00;;;;;;4935391;29;20298;-59
2023/09/18 10:01:17;;;;;;;;;;;22.70;1.00;;;;;;4935084;29;20330;-56
2023/09/18 10:03:45;;;;;;;;;;;22.80;1.00;;;;;;4934997;29;20339;-59
2023/09/18 10:06:13;;;;;;;;;;;22.80;1.00;;;;;;4943198;23;19927;-58
2023/09/18 10:08:40;;;;;;;;;;;22.80;1.00;;;;;;4953345;29;19926;-58
2023/09/18 10:11:10;;;;;;;;;;;22.80;1.00;;;;;;4954117;28;19957;-58
2023/09/18 10:13:52;;;;;;;;;;;22.80;1.00;;;;;;4954133;28;19926;-55
2023/09/18 10:16:22;;;;;;;;;;;22.80;1.00;;;;;;4949905;29;20021;-59
2023/09/18 10:18:49;;;;;;;;;;;22.80;1.00;;;;;;4934413;29;20406;-58
2023/09/18 10:21:31;;;;;;;;;;;22.80;1.00;;;;;;4935187;29;19931;-57
2023/09/18 10:24:12;;;;;;;;;;;22.90;1.00;;;;;;4935325;29;19926;-57
2023/09/18 10:26:46;;;;;;;;;;;22.90;1.00;;;;;;4934931;29;19927;-58
2023/09/18 10:29:15;;;;;;;;;;;22.90;1.00;;;;;;4935121;29;20413;-60
2023/09/18 10:31:43;;;;;;;;;;;22.90;1.00;;;;;;4935094;29;19927;-60
2023/09/18 10:34:12;;;;;;;;;;;22.90;1.00;;;;;;4935132;29;19937;-60
2023/09/18 10:36:41;;;;;;;;;;;23.00;1.00;;;;;;4934950;29;20415;-58
2023/09/18 10:39:12;;;;;;;;;;;23.00;1.00;;;;;;4934851;29;19939;-59
2023/09/18 10:41:40;;;;;;;;;;;23.00;1.00;;;;;;4935180;29;19927;-57
2023/09/18 10:44:07;;;;;;;;;;;23.00;1.00;;;;;;4935064;29;19927;-59
2023/09/18 10:46:34;;;;;;;;;;;23.00;1.00;;;;;;4934817;29;19927;-59
2023/09/18 10:49:03;;;;;;;;;;;23.00;1.00;;;;;;4934645;29;20025;-59
2023/09/18 10:51:31;;;;;;;;;;;23.00;1.00;;;;;;4935118;29;19926;-58
2023/09/18 10:53:58;;;;;;;;;;;23.00;1.00;;;;;;4935089;29;19974;-58
2023/09/18 10:56:25;;;;;;;;;;;23.00;1.00;;;;;;4934761;29;20299;-59
2023/09/18 10:58:58;;;;;;;;;;;23.00;1.00;;;;;;4934651;29;19933;-59
2023/09/18 11:01:27;;;;;;;;;;;23.00;1.00;;;;;;4934869;29;19931;-58
2023/09/18 11:03:59;;;;;;;;;;;23.10;1.00;;;;;;4934998;29;20255;-59
2023/09/18 11:06:26;;;;;;;;;;;23.10;1.00;;;;;;4934706;29;19981;-59
2023/09/18 11:09:01;;;;;;;;;;;23.10;1.00;;;;;;4933118;29;19927;-59
2023/09/18 11:11:29;;;;;;;;;;;23.10;1.00;;;;;;4934414;29;19977;-59
2023/09/18 11:13:56;;;;;;;;;;;23.10;1.00;;;;;;4934744;29;19927;-59
2023/09/18 11:16:26;;;;;;;;;;;23.10;1.00;;;;;;4935631;29;20029;-59
2023/09/18 11:18:53;;;;;;;;;;;23.10;1.00;;;;;;4937525;29;20387;-58
2023/09/18 11:21:24;;;;;;;;;;;23.10;1.00;;;;;;4937734;29;19927;-59
2023/09/18 11:24:01;;;;;;;;;;;23.20;1.00;;;;;;4938238;29;20064;-59
2023/09/18 11:26:40;;;;;;;;;;;23.20;1.00;;;;;;4931358;29;19934;-54
2023/09/18 11:29:09;;;;;;;;;;;23.20;1.00;;;;;;4937513;29;19934;-59
2023/09/18 11:31:43;;;;;;;;;;;23.20;1.00;;;;;;4937598;29;20383;-59
2023/09/18 11:34:21;;;;;;;;;;;23.20;1.00;;;;;;4936324;29;20393;-59
2023/09/18 11:36:48;;;;;;;;;;;23.20;1.00;;;;;;4936186;29;19986;-59
2023/09/18 11:39:33;;;;;;;;;;;23.20;1.00;;;;;;4937175;29;19927;-59
2023/09/18 11:42:19;;;;;;;;;;;23.20;1.00;;;;;;4937681;29;20399;-59
2023/09/18 11:44:46;;;;;;;;;;;23.20;1.00;;;;;;4937606;29;19933;-59
2023/09/18 11:47:21;;;;;;;;;;;23.20;1.00;;;;;;4936858;29;19935;-59
2023/09/18 11:49:57;;;;;;;;;;;23.20;1.00;;;;;;4937607;29;19937;-59
2023/09/18 11:52:25;;;;;;;;;;;23.20;1.00;;;;;;4937567;29;19937;-59
2023/09/18 11:54:52;;;;;;;;;;;23.20;1.00;;;;;;4934666;29;20279;-59
2023/09/18 11:57:19;;;;;;;;;;;23.20;1.00;;;;;;4937165;29;19927;-59
2023/09/18 11:59:46;;;;;;;;;;;23.20;1.00;;;;;;4937619;29;19941;-59
2023/09/18 12:02:20;;;;;;;;;;;23.20;1.00;;;;;;4937404;29;19970;-59
2023/09/18 12:04:48;;;;;;;;;;;23.30;1.00;;;;;;4937422;29;20290;-59
2023/09/18 12:07:15;;;;;;;;;;;23.30;1.00;;;;;;4936953;29;19927;-59
2023/09/18 12:09:42;;;;;;;;;;;23.30;1.00;;;;;;4937384;29;19962;-59
2023/09/18 12:12:09;;;;;;;;;;;23.30;1.00;;;;;;4932534;29;19970;-58
2023/09/18 12:14:35;;;;;;;;;;;23.30;1.00;;;;;;4936820;29;19927;-58
2023/09/18 12:17:03;;;;;;;;;;;23.30;1.00;;;;;;4936425;29;20025;-59
2023/09/18 12:19:30;;;;;;;;;;;23.30;1.00;;;;;;4936798;29;19927;-59
2023/09/18 12:21:57;;;;;;;;;;;23.30;1.00;;;;;;4936629;29;20395;-58
2023/09/18 12:24:24;;;;;;;;;;;23.20;1.00;;;;;;4936850;29;19927;-59
2023/09/18 12:26:51;;;;;;;;;;;23.30;1.00;;;;;;4936981;29;20001;-59
2023/09/18 12:29:19;;;;;;;;;;;23.30;1.00;;;;;;4935911;29;20421;-59
2023/09/18 12:31:46;;;;;;;;;;;23.30;1.00;;;;;;4936416;29;19927;-58
2023/09/18 12:34:21;;;;;;;;;;;23.30;1.00;;;;;;4936315;29;19934;-59
2023/09/18 12:36:49;;;;;;;;;;;23.30;1.00;;;;;;4936493;29;19931;-59
2023/09/18 12:39:16;;;;;;;;;;;23.30;1.00;;;;;;4936039;29;20379;-59
2023/09/18 12:41:44;;;;;;;;;;;23.30;1.00;;;;;;4936302;29;19976;-58
2023/09/18 12:44:11;;;;;;;;;;;23.30;1.00;;;;;;4936609;29;19982;-59
2023/09/18 12:46:40;;;;;;;;;;;23.30;1.00;;;;;;4936082;29;19927;-59
2023/09/18 12:49:17;;;;;;;;;;;23.30;1.00;;;;;;4936008;29;20364;-59
2023/09/18 12:51:44;;;;;;;;;;;23.30;1.00;;;;;;4936286;29;19941;-59
2023/09/18 12:54:13;;;;;;;;;;;23.30;1.00;;;;;;4936205;29;20442;-58
2023/09/18 12:56:41;;;;;;;;;;;23.30;1.00;;;;;;4935942;29;20387;-57
2023/09/18 12:59:08;;;;;;;;;;;23.30;1.00;;;;;;4935653;29;19927;-59
2023/09/18 13:01:45;;;;;;;;;;;23.30;1.00;;;;;;4934840;29;19934;-59
2023/09/18 13:04:12;;;;;;;;;;;23.30;1.00;;;;;;4935919;29;20387;-59
2023/09/18 13:06:39;;;;;;;;;;;23.30;1.00;;;;;;4935649;29;19927;-58
2023/09/18 13:09:22;;;;;;;;;;;23.30;1.00;;;;;;4935706;29;19927;-59
2023/09/18 13:11:53;;;;;;;;;;;23.30;1.00;;;;;;4935792;29;19927;-59
2023/09/18 13:14:20;;;;;;;;;;;23.30;1.00;;;;;;4935702;29;19934;-59
2023/09/18 13:16:47;;;;;;;;;;;23.30;1.00;;;;;;5124267;23;20060;-59
2023/09/18 13:19:14;;;;;;;;;;;23.30;1.00;;;;;;4966332;28;19926;-59
2023/09/18 13:21:46;;;;;;;;;;;23.30;1.00;;;;;;4973682;28;19949;-59
2023/09/18 13:24:25;;;;;;;;;;;23.30;1.00;;;;;;4974047;28;20021;-59
2023/09/18 13:26:52;;;;;;;;;;;23.30;1.00;;;;;;4965528;28;19950;-59
2023/09/18 13:29:19;;;;;;;;;;;23.30;1.00;;;;;;4954291;29;20373;-59
2023/09/18 13:31:46;;;;;;;;;;;23.30;1.00;;;;;;4954669;29;19934;-59
2023/09/18 13:34:13;;;;;;;;;;;23.30;1.00;;;;;;4954592;29;19936;-58
2023/09/18 13:36:41;;;;;;;;;;;23.30;1.00;;;;;;4954272;28;19927;-59
2023/09/18 13:39:08;;;;;;;;;;;23.30;1.00;;;;;;4954480;28;19927;-59
2023/09/18 13:41:35;;;;;;;;;;;23.30;1.00;;;;;;4954463;29;20029;-59
2023/09/18 13:44:01;;;;;;;;;;;23.30;1.00;;;;;;4954420;28;19931;-59
2023/09/18 13:46:29;;;;;;;;;;;23.30;1.00;;;;;;4946157;28;19933;-57
2023/09/18 13:48:56;;;;;;;;;;;23.30;1.00;;;;;;4950411;29;20322;-60
2023/09/18 13:51:23;;;;;;;;;;;23.30;1.00;;;;;;4953924;29;19926;-59
2023/09/18 13:53:50;;;;;;;;;;;23.30;1.00;;;;;;4953072;28;19934;-60
2023/09/18 13:56:16;;;;;;;;;;;23.30;1.00;;;;;;4954168;28;19926;-60
2023/09/18 13:58:43;;;;;;;;;;;23.30;1.00;;;;;;4954169;29;19935;-60
2023/09/18 14:01:10;;;;;;;;;;;23.30;1.00;;;;;;4954072;29;20018;-60
2023/09/18 14:03:37;;;;;;;;;;;23.30;1.00;;;;;;4954417;28;19926;-60
2023/09/18 14:06:05;;;;;;;;;;;23.30;1.00;;;;;;4953897;28;19931;-60
2023/09/18 14:08:32;;;;;;;;;;;23.30;1.00;;;;;;4946377;29;20026;-59
2023/09/18 14:10:59;;;;;;;;;;;23.30;1.00;;;;;;4954282;29;19970;-60
2023/09/18 14:13:26;;;;;;;;;;;23.30;1.00;;;;;;4954044;29;19950;-59
2023/09/18 14:15:53;;;;;;;;;;;23.30;1.00;;;;;;4954082;28;19926;-57
2023/09/18 14:18:19;;;;;;;;;;;23.30;1.00;;;;;;4951433;28;20037;-59
2023/09/18 14:20:46;;;;;;;;;;;23.40;1.00;;;;;;4955084;28;19933;-57
2023/09/18 14:23:13;;;;;;;;;;;23.30;1.00;;;;;;4953550;29;19973;-58
2023/09/18 14:25:41;;;;;;;;;;;23.40;1.00;;;;;;4953741;29;20184;-60
2023/09/18 14:28:08;;;;;;;;;;;23.30;1.00;;;;;;4953792;28;19927;-58
2023/09/18 14:30:34;;;;;;;;;;;23.40;1.00;;;;;;4953619;29;19930;-58
2023/09/18 14:33:02;;;;;;;;;;;23.40;1.00;;;;;;4953502;29;19926;-59
2023/09/18 14:35:29;;;;;;;;;;;23.40;1.00;;;;;;4953701;29;19973;-59
2023/09/18 14:37:55;;;;;;;;;;;23.40;1.00;;;;;;4953216;28;20397;-59